createdAt,value
2019-03-28T00:01:53.839Z,6.70
2019-03-28T00:06:00.082Z,6.70
2019-03-28T00:10:07.050Z,6.70
2019-03-28T00:14:13.729Z,6.70
2019-03-28T00:18:21.887Z,6.60
2019-03-28T00:22:48.332Z,6.60
2019-03-28T00:26:54.561Z,6.60
2019-03-28T00:31:00.950Z,6.60
2019-03-28T00:35:08.708Z,6.60
2019-03-28T00:39:16.005Z,6.70
2019-03-28T00:43:22.178Z,6.60
2019-03-28T00:47:28.870Z,6.60
2019-03-28T00:51:35.551Z,6.70
2019-03-28T00:55:41.999Z,6.60
2019-03-28T00:59:48.208Z,6.60
2019-03-28T01:03:55.630Z,6.60
2019-03-28T01:08:01.858Z,6.60
2019-03-28T01:12:11.927Z,6.60
2019-03-28T01:16:18.272Z,6.60
2019-03-28T01:20:24.486Z,6.60
2019-03-28T01:24:30.699Z,6.60
2019-03-28T01:28:41.132Z,6.60
2019-03-28T01:32:47.401Z,6.60
2019-03-28T01:36:53.599Z,6.70
2019-03-28T01:40:59.737Z,6.60
2019-03-28T01:45:08.475Z,6.60
2019-03-28T01:49:15.600Z,6.70
2019-03-28T01:53:22.955Z,6.70
2019-03-28T01:57:30.037Z,6.70
2019-03-28T02:01:36.201Z,6.70
2019-03-28T02:05:43.318Z,6.70
2019-03-28T02:09:49.753Z,6.70
2019-03-28T02:13:56.017Z,6.70
2019-03-28T02:18:02.309Z,6.70
2019-03-28T02:22:08.698Z,6.70
2019-03-28T02:26:15.016Z,6.70
2019-03-28T02:30:42.163Z,6.70
2019-03-28T02:34:49.156Z,6.70
2019-03-28T02:38:55.638Z,6.70
2019-03-28T02:43:01.995Z,6.70
2019-03-28T02:47:09.536Z,6.70
2019-03-28T02:51:15.816Z,6.70
2019-03-28T02:55:22.183Z,6.70
2019-03-28T02:59:28.815Z,6.70
2019-03-28T03:03:36.978Z,6.70
2019-03-28T03:07:44.267Z,6.70
2019-03-28T03:11:50.532Z,6.70
2019-03-28T03:15:56.953Z,6.70
2019-03-28T03:20:03.563Z,6.70
2019-03-28T03:24:09.862Z,6.70
2019-03-28T03:28:16.048Z,6.80
2019-03-28T03:32:22.722Z,6.80
2019-03-28T03:36:29.012Z,6.80
2019-03-28T03:40:35.553Z,6.80
2019-03-28T03:44:42.332Z,6.80
2019-03-28T03:48:49.791Z,6.80
2019-03-28T03:52:56.031Z,6.80
2019-03-28T03:57:02.400Z,6.80
2019-03-28T04:01:08.647Z,6.80
2019-03-28T04:05:16.042Z,6.80
2019-03-28T04:09:22.515Z,6.80
2019-03-28T04:13:28.780Z,6.80
2019-03-28T04:17:35.905Z,6.90
2019-03-28T04:21:42.099Z,6.80
2019-03-28T04:25:48.833Z,6.90
2019-03-28T04:30:00.107Z,6.90
2019-03-28T04:34:08.776Z,6.80
2019-03-28T04:38:14.977Z,6.90
2019-03-28T04:42:21.321Z,6.90
2019-03-28T04:46:27.585Z,6.90
2019-03-28T04:50:34.466Z,6.90
2019-03-28T04:54:41.015Z,6.90
2019-03-28T04:58:47.333Z,6.90
2019-03-28T05:02:55.202Z,6.90
2019-03-28T05:07:02.325Z,6.90
2019-03-28T05:11:10.214Z,6.90
2019-03-28T05:15:57.373Z,6.90
2019-03-28T05:19:30.877Z,6.90
2019-03-28T05:23:37.781Z,7.00
2019-03-28T05:27:44.157Z,7.00
2019-03-28T05:31:56.319Z,7.00
2019-03-28T05:36:04.587Z,7.00
2019-03-28T05:40:12.586Z,7.00
2019-03-28T05:44:18.837Z,7.00
2019-03-28T05:48:25.931Z,7.00
2019-03-28T05:52:32.043Z,7.00
2019-03-28T05:56:38.351Z,7.00
2019-03-28T06:00:44.677Z,7.00
2019-03-28T06:04:50.900Z,7.10
2019-03-28T06:08:57.332Z,7.10
2019-03-28T06:13:03.451Z,7.20
2019-03-28T06:17:10.052Z,7.20
2019-03-28T06:21:16.338Z,7.20
2019-03-28T06:25:23.640Z,7.20
2019-03-28T06:29:30.001Z,7.20
2019-03-28T06:33:38.490Z,7.30
2019-03-28T06:37:44.207Z,7.30
2019-03-28T06:41:50.493Z,7.30
2019-03-28T06:45:56.873Z,7.30
2019-03-28T06:50:03.097Z,7.30
2019-03-28T06:54:09.349Z,7.30
2019-03-28T06:58:15.621Z,7.30
2019-03-28T07:02:22.140Z,7.40
2019-03-28T07:06:28.616Z,7.40
2019-03-28T07:10:34.864Z,7.40
2019-03-28T07:14:41.335Z,7.40
2019-03-28T07:18:47.511Z,7.50
2019-03-28T07:22:53.737Z,7.50
2019-03-28T07:27:01.036Z,7.50
2019-03-28T07:31:07.284Z,7.60
2019-03-28T07:35:13.412Z,7.60
2019-03-28T07:39:19.656Z,7.60
2019-03-28T07:43:25.894Z,7.70
2019-03-28T07:47:32.198Z,7.70
2019-03-28T07:51:38.934Z,7.70
2019-03-28T07:55:45.061Z,7.80
2019-03-28T08:00:03.510Z,7.80
2019-03-28T08:03:59.241Z,7.90
2019-03-28T08:08:05.719Z,7.90
2019-03-28T08:12:22.480Z,8.00
2019-03-28T08:16:19.882Z,8.00
2019-03-28T08:20:26.249Z,8.00
2019-03-28T08:24:32.543Z,8.10
2019-03-28T08:28:38.839Z,8.20
2019-03-28T08:32:46.466Z,8.20
2019-03-28T08:36:52.684Z,8.30
2019-03-28T08:40:58.896Z,8.40
2019-03-28T08:45:05.761Z,8.40
2019-03-28T08:49:12.065Z,8.50
2019-03-28T08:53:18.578Z,8.60
2019-03-28T08:57:25.827Z,8.70
2019-03-28T09:05:55.883Z,8.90
2019-03-28T09:10:02.481Z,8.90
2019-03-28T09:14:20.790Z,9.00
2019-03-28T09:22:51.428Z,9.20
2019-03-28T09:26:58.508Z,9.30
2019-03-28T09:31:18.927Z,9.50
2019-03-28T09:35:17.246Z,9.50
2019-03-28T09:39:25.044Z,9.60
2019-03-28T09:43:32.088Z,9.70
2019-03-28T09:47:39.309Z,9.90
2019-03-28T09:51:45.653Z,10.00
2019-03-28T09:55:52.072Z,10.10
2019-03-28T09:59:58.746Z,10.30
2019-03-28T10:04:06.562Z,10.30
2019-03-28T10:08:13.090Z,10.50
2019-03-28T10:12:19.279Z,10.60
2019-03-28T10:16:25.564Z,10.70
2019-03-28T10:20:31.841Z,10.80
2019-03-28T10:24:38.086Z,10.90
2019-03-28T10:28:44.312Z,11.10
2019-03-28T10:32:52.050Z,11.30
2019-03-28T10:36:58.369Z,11.40
2019-03-28T10:41:05.889Z,11.50
2019-03-28T10:45:12.218Z,11.70
2019-03-28T10:49:18.937Z,11.90
2019-03-28T10:53:29.923Z,12.00
2019-03-28T10:57:34.939Z,12.20
2019-03-28T11:01:49.092Z,12.40
2019-03-28T11:05:49.305Z,12.50
2019-03-28T11:09:55.585Z,12.70
2019-03-28T11:14:01.867Z,12.80
2019-03-28T11:18:08.014Z,13.00
2019-03-28T11:22:14.520Z,13.10
2019-03-28T11:26:20.696Z,13.20
2019-03-28T11:30:26.874Z,13.30
2019-03-28T11:34:33.141Z,13.50
2019-03-28T11:38:39.358Z,13.50
2019-03-28T11:42:45.505Z,13.60
2019-03-28T11:46:51.890Z,13.70
2019-03-28T11:50:59.603Z,13.80
2019-03-28T11:55:06.607Z,13.90
2019-03-28T11:59:12.810Z,14.00
2019-03-28T12:03:19.178Z,14.10
2019-03-28T12:07:25.886Z,14.20
2019-03-28T12:11:32.335Z,14.30
2019-03-28T12:16:08.268Z,14.40
2019-03-28T12:20:20.685Z,14.50
2019-03-28T12:24:26.993Z,14.60
2019-03-28T12:33:35.502Z,14.80
2019-03-28T12:37:41.666Z,14.90
2019-03-28T12:42:03.881Z,15.00
2019-03-28T12:45:57.045Z,15.10
2019-03-28T12:50:03.196Z,15.20
2019-03-28T12:54:09.458Z,15.20
2019-03-28T12:58:15.748Z,15.30
2019-03-28T13:02:29.880Z,15.40
2019-03-28T13:06:29.932Z,15.50
2019-03-28T13:10:36.692Z,15.60
2019-03-28T13:14:43.116Z,15.60
2019-03-28T13:18:49.434Z,15.70
2019-03-28T13:22:55.733Z,15.80
2019-03-28T13:27:02.137Z,15.80
2019-03-28T13:31:08.713Z,15.80
2019-03-28T13:35:15.092Z,15.90
2019-03-28T13:39:21.573Z,15.90
2019-03-28T13:43:27.821Z,16.00
2019-03-28T13:47:34.174Z,16.00
2019-03-28T13:51:40.395Z,16.00
2019-03-28T13:55:46.858Z,16.00
2019-03-28T13:59:53.089Z,16.00
2019-03-28T14:03:59.395Z,16.10
2019-03-28T14:08:05.696Z,16.10
2019-03-28T14:12:11.914Z,16.10
2019-03-28T14:16:18.370Z,16.10
2019-03-28T14:20:24.715Z,16.10
2019-03-28T14:24:31.116Z,16.10
2019-03-28T14:28:37.365Z,16.10
2019-03-28T14:32:53.172Z,16.20
2019-03-28T14:36:51.585Z,16.20
2019-03-28T14:40:58.439Z,16.20
2019-03-28T14:45:06.539Z,16.30
2019-03-28T14:49:13.059Z,16.30
2019-03-28T14:53:22.061Z,16.40
2019-03-28T14:57:27.255Z,16.40
2019-03-28T15:01:33.482Z,16.40
2019-03-28T15:05:40.171Z,16.30
2019-03-28T15:09:47.502Z,16.30
2019-03-28T15:13:53.749Z,16.30
2019-03-28T15:17:59.989Z,16.40
2019-03-28T15:22:06.376Z,16.40
2019-03-28T15:26:12.592Z,16.40
2019-03-28T15:30:18.865Z,16.30
2019-03-28T15:34:25.115Z,16.20
2019-03-28T15:38:31.792Z,16.30
2019-03-28T15:42:38.837Z,16.20
2019-03-28T15:46:45.082Z,16.20
2019-03-28T15:50:52.864Z,16.20
2019-03-28T15:54:59.109Z,16.20
2019-03-28T15:59:05.548Z,16.10
2019-03-28T16:03:11.831Z,16.10
2019-03-28T16:07:18.365Z,16.00
2019-03-28T16:11:24.964Z,16.00
2019-03-28T16:15:31.341Z,15.90
2019-03-28T16:19:41.461Z,15.90
2019-03-28T16:23:47.696Z,15.90
2019-03-28T16:27:55.238Z,15.80
2019-03-28T16:32:02.591Z,15.70
2019-03-28T16:36:09.099Z,15.70
2019-03-28T16:40:16.906Z,15.60
2019-03-28T16:44:23.215Z,15.60
2019-03-28T16:48:29.488Z,15.60
2019-03-28T16:52:35.759Z,15.50
2019-03-28T16:56:42.063Z,15.50
2019-03-28T17:00:48.399Z,15.40
2019-03-28T17:04:54.675Z,15.30
2019-03-28T17:09:01.192Z,15.30
2019-03-28T17:13:09.041Z,15.20
2019-03-28T17:17:17.344Z,15.10
2019-03-28T17:21:23.989Z,15.10
2019-03-28T17:25:30.978Z,15.10
2019-03-28T17:29:54.598Z,15.00
2019-03-28T17:34:01.164Z,14.90
2019-03-28T17:38:07.619Z,14.80
2019-03-28T17:42:13.979Z,14.80
2019-03-28T17:46:20.409Z,14.70
2019-03-28T17:50:27.032Z,14.70
2019-03-28T17:54:33.557Z,14.60
2019-03-28T17:58:40.465Z,14.50
2019-03-28T18:02:47.884Z,14.40
2019-03-28T18:06:54.458Z,14.40
2019-03-28T18:11:01.888Z,14.30
2019-03-28T18:15:08.345Z,14.30
2019-03-28T18:19:15.207Z,14.20
2019-03-28T18:23:21.968Z,14.10
2019-03-28T18:27:30.254Z,14.10
2019-03-28T18:31:49.362Z,14.00
2019-03-28T18:35:44.933Z,13.90
2019-03-28T18:39:51.222Z,13.90
2019-03-28T18:43:57.617Z,13.80
2019-03-28T18:48:03.892Z,13.80
2019-03-28T18:52:10.127Z,13.70
2019-03-28T18:56:16.408Z,13.60
2019-03-28T19:00:23.663Z,13.50
2019-03-28T19:04:30.076Z,13.50
2019-03-28T19:08:37.317Z,13.40
2019-03-28T19:12:43.706Z,13.30
2019-03-28T19:16:52.187Z,13.30
2019-03-28T19:21:01.748Z,13.20
2019-03-28T19:25:10.038Z,13.10
2019-03-28T19:29:17.349Z,13.00
2019-03-28T19:33:27.277Z,13.00
2019-03-28T19:37:33.789Z,12.90
2019-03-28T19:41:40.427Z,12.80
2019-03-28T19:45:47.118Z,12.80
2019-03-28T19:49:55.697Z,12.80
2019-03-28T19:54:03.429Z,12.70
2019-03-28T19:58:13.206Z,12.60
2019-03-28T20:02:19.512Z,12.60
2019-03-28T20:06:32.599Z,12.60
2019-03-28T20:10:40.783Z,12.50
2019-03-28T20:14:52.451Z,12.50
2019-03-28T20:18:59.883Z,12.40
2019-03-28T20:23:06.817Z,12.40
2019-03-28T20:27:16.928Z,12.40
2019-03-28T20:31:24.741Z,12.30
2019-03-28T20:35:33.091Z,12.30
2019-03-28T20:39:40.238Z,12.30
2019-03-28T20:43:46.811Z,12.20
2019-03-28T20:47:53.368Z,12.20
2019-03-28T20:52:00.008Z,12.20
2019-03-28T20:56:06.890Z,12.10
2019-03-28T21:00:13.459Z,12.10
2019-03-28T21:04:31.276Z,12.10
2019-03-28T21:08:29.588Z,12.10
2019-03-28T21:12:36.144Z,12.00
2019-03-28T21:16:43.542Z,12.00
2019-03-28T21:20:51.446Z,11.90
2019-03-28T21:24:58.683Z,11.90
2019-03-28T21:29:05.323Z,11.90
2019-03-28T21:33:15.140Z,11.80
2019-03-28T21:37:24.317Z,11.80
2019-03-28T21:41:33.662Z,11.80
2019-03-28T21:45:40.828Z,11.80
2019-03-28T21:49:47.923Z,11.70
2019-03-28T21:53:54.775Z,11.70
2019-03-28T21:58:04.907Z,11.60
2019-03-28T22:02:11.394Z,11.60
2019-03-28T22:06:17.745Z,11.60
2019-03-28T22:10:27.052Z,11.60
2019-03-28T22:14:33.332Z,11.50
2019-03-28T22:18:39.656Z,11.50
2019-03-28T22:22:45.992Z,11.50
2019-03-28T22:26:55.170Z,11.50
2019-03-28T22:31:01.573Z,11.40
2019-03-28T22:35:08.002Z,11.40
2019-03-28T22:39:14.828Z,11.40
2019-03-28T22:43:21.148Z,11.30
2019-03-28T22:47:29.907Z,11.30
2019-03-28T22:51:37.690Z,11.30
2019-03-28T22:55:44.024Z,11.30
2019-03-28T22:59:50.250Z,11.20
2019-03-28T23:03:56.545Z,11.20
2019-03-28T23:08:02.885Z,11.20
2019-03-28T23:12:09.282Z,11.20
2019-03-28T23:16:15.564Z,11.20
2019-03-28T23:20:38.724Z,11.10
2019-03-28T23:24:45.057Z,11.10
2019-03-28T23:28:51.401Z,11.10
2019-03-28T23:32:57.648Z,11.00
2019-03-28T23:37:04.024Z,11.00
2019-03-28T23:41:10.238Z,11.00
2019-03-28T23:45:16.542Z,10.90
2019-03-28T23:49:22.820Z,10.90
2019-03-28T23:53:29.102Z,10.90
2019-03-28T23:57:35.432Z,10.90
